createdAt,value
2022-09-12T00:00:35.477Z,8.70
2022-09-12T00:03:01.863Z,9.77
2022-09-12T00:05:28.243Z,11.27
2022-09-12T00:07:54.690Z,9.68
2022-09-12T00:10:21.070Z,8.27
2022-09-12T00:12:47.809Z,7.63
2022-09-12T00:15:14.225Z,9.20
2022-09-12T00:17:40.661Z,9.43
2022-09-12T00:20:09.253Z,14.05
2022-09-12T00:22:36.576Z,8.55
2022-09-12T00:25:04.724Z,8.97
2022-09-12T00:27:31.418Z,9.05
2022-09-12T00:29:57.776Z,7.95
2022-09-12T00:32:24.160Z,7.75
2022-09-12T00:34:50.526Z,8.23
2022-09-12T00:37:16.878Z,8.13
2022-09-12T00:39:43.382Z,8.40
2022-09-12T00:42:12.022Z,7.90
2022-09-12T00:44:38.345Z,7.85
2022-09-12T00:47:13.245Z,8.45
2022-09-12T00:50:13.590Z,8.67
2022-09-12T00:52:53.486Z,8.75
2022-09-12T00:55:24.051Z,8.05
2022-09-12T00:58:02.219Z,8.82
2022-09-12T01:00:29.493Z,8.68
2022-09-12T01:03:02.047Z,8.80
2022-09-12T01:05:29.583Z,10.45
2022-09-12T01:07:57.463Z,10.02
2022-09-12T01:10:24.242Z,8.98
2022-09-12T01:12:51.270Z,8.65
2022-09-12T01:15:17.775Z,8.53
2022-09-12T01:18:07.300Z,7.60
2022-09-12T01:20:52.582Z,8.85
2022-09-12T01:23:32.444Z,8.90
2022-09-12T01:26:40.219Z,9.05
2022-09-12T01:29:39.527Z,10.87
2022-09-12T01:32:32.288Z,11.05
2022-09-12T01:35:28.226Z,9.75
2022-09-12T01:38:09.216Z,10.13
2022-09-12T01:41:11.667Z,8.77
2022-09-12T01:43:48.311Z,8.17
2022-09-12T01:46:29.518Z,9.40
2022-09-12T01:49:09.450Z,8.25
2022-09-12T01:51:41.556Z,10.52
2022-09-12T01:54:13.857Z,8.38
2022-09-12T01:56:43.821Z,8.60
2022-09-12T01:59:25.778Z,8.63
2022-09-12T02:02:18.050Z,9.13
2022-09-12T02:04:57.294Z,10.05
2022-09-12T02:07:33.236Z,8.45
2022-09-12T02:10:07.533Z,9.47
2022-09-12T02:12:44.523Z,8.55
2022-09-12T02:15:12.853Z,8.40
2022-09-12T02:17:43.597Z,9.40
2022-09-12T02:20:46.952Z,9.48
2022-09-12T02:23:20.454Z,10.97
2022-09-12T02:25:51.058Z,10.85
2022-09-12T02:28:26.185Z,9.05
2022-09-12T02:31:23.130Z,10.50
2022-09-12T02:34:10.538Z,9.48
2022-09-12T02:37:04.618Z,10.00
2022-09-12T02:39:31.267Z,9.93
2022-09-12T02:42:00.211Z,11.13
2022-09-12T02:44:27.902Z,9.38
2022-09-12T02:46:59.474Z,9.05
2022-09-12T02:49:26.022Z,10.50
2022-09-12T02:51:52.535Z,10.05
2022-09-12T02:54:20.939Z,9.43
2022-09-12T02:56:47.400Z,9.57
2022-09-12T02:59:19.321Z,9.68
2022-09-12T03:02:15.583Z,10.20
2022-09-12T03:05:01.510Z,10.50
2022-09-12T03:07:50.736Z,9.95
2022-09-12T03:10:45.450Z,9.07
2022-09-12T03:13:21.000Z,8.63
2022-09-12T03:16:31.848Z,9.13
2022-09-12T03:19:19.869Z,9.35
2022-09-12T03:21:53.015Z,9.77
2022-09-12T03:24:23.795Z,9.95
2022-09-12T03:26:54.844Z,11.23
2022-09-12T03:29:22.834Z,9.50
2022-09-12T03:31:51.828Z,9.35
2022-09-12T03:34:20.629Z,10.07
2022-09-12T03:36:47.408Z,9.98
2022-09-12T03:39:13.829Z,9.15
2022-09-12T03:41:40.336Z,9.10
2022-09-12T03:44:06.734Z,9.10
2022-09-12T03:46:33.752Z,8.70
2022-09-12T03:49:00.161Z,8.85
2022-09-12T03:51:26.739Z,8.75
2022-09-12T03:53:53.678Z,9.30
2022-09-12T03:56:20.094Z,10.73
2022-09-12T03:58:47.003Z,9.50
2022-09-12T04:01:16.126Z,10.27
2022-09-12T04:03:44.314Z,11.75
2022-09-12T04:06:13.814Z,8.73
2022-09-12T04:08:40.883Z,9.68
2022-09-12T04:11:11.515Z,10.13
2022-09-12T04:13:39.733Z,10.82
2022-09-12T04:16:07.280Z,11.10
2022-09-12T04:18:34.586Z,10.93
2022-09-12T04:21:09.017Z,9.65
2022-09-12T04:23:35.614Z,9.70
2022-09-12T04:26:06.486Z,10.32
2022-09-12T04:28:34.976Z,10.65
2022-09-12T04:31:04.833Z,10.37
2022-09-12T04:33:31.756Z,9.55
2022-09-12T04:36:16.631Z,11.50
2022-09-12T04:38:44.867Z,12.40
2022-09-12T04:41:22.636Z,10.77
2022-09-12T04:43:53.562Z,9.73
2022-09-12T04:46:21.085Z,10.90
2022-09-12T04:48:49.801Z,10.32
2022-09-12T04:51:21.147Z,13.32
2022-09-12T04:53:50.053Z,11.48
2022-09-12T04:56:16.904Z,9.57
2022-09-12T04:58:43.340Z,9.75
2022-09-12T05:01:18.201Z,11.73
2022-09-12T05:03:46.398Z,12.00
2022-09-12T05:06:15.840Z,11.75
2022-09-12T05:08:43.110Z,13.00
2022-09-12T05:11:26.595Z,14.50
2022-09-12T05:13:56.862Z,14.07
2022-09-12T05:16:26.337Z,14.73
2022-09-12T05:18:52.999Z,13.77
2022-09-12T05:21:22.811Z,13.17
2022-09-12T05:23:53.912Z,14.00
2022-09-12T05:26:21.525Z,13.90
2022-09-12T05:28:49.363Z,15.57
2022-09-12T05:31:21.562Z,17.23
2022-09-12T05:33:50.443Z,17.07
2022-09-12T05:36:22.642Z,17.95
2022-09-12T05:38:49.005Z,20.90
2022-09-12T05:41:20.915Z,16.23
2022-09-12T05:43:55.905Z,16.52
2022-09-12T05:46:25.686Z,19.43
2022-09-12T05:48:56.394Z,17.55
2022-09-12T05:51:26.577Z,20.92
2022-09-12T05:53:58.241Z,21.13
2022-09-12T05:56:27.402Z,24.88
2022-09-12T05:59:02.008Z,22.70
2022-09-12T06:01:30.292Z,25.35
2022-09-12T06:04:00.842Z,24.98
2022-09-12T06:06:29.027Z,25.85
2022-09-12T06:09:01.042Z,25.50
2022-09-12T06:11:30.138Z,30.87
2022-09-12T06:13:58.094Z,26.25
2022-09-12T06:16:27.381Z,30.48
2022-09-12T06:18:56.565Z,27.17
2022-09-12T06:21:24.665Z,26.27
2022-09-12T06:23:51.295Z,19.93
2022-09-12T06:26:21.577Z,13.88
2022-09-12T06:28:48.149Z,14.77
2022-09-12T06:31:20.265Z,12.50
2022-09-12T06:33:49.447Z,13.02
2022-09-12T06:36:22.355Z,13.40
2022-09-12T06:38:54.724Z,11.40
2022-09-12T06:41:21.924Z,11.80
2022-09-12T06:43:48.311Z,10.45
2022-09-12T06:46:14.844Z,11.40
2022-09-12T06:48:42.654Z,9.73
2022-09-12T06:51:14.785Z,9.15
2022-09-12T06:53:42.347Z,10.60
2022-09-12T06:56:29.110Z,9.50
2022-09-12T06:58:58.228Z,8.20
2022-09-12T07:01:29.071Z,9.53
2022-09-12T07:03:57.382Z,8.02
2022-09-12T07:06:29.810Z,9.73
2022-09-12T07:08:58.414Z,8.77
2022-09-12T07:11:27.205Z,9.48
2022-09-12T07:13:56.466Z,8.10
2022-09-12T07:16:23.065Z,8.60
2022-09-12T07:18:54.570Z,7.60
2022-09-12T07:21:21.440Z,8.43
2022-09-12T07:23:48.275Z,8.25
2022-09-12T07:26:16.355Z,8.20
2022-09-12T07:28:43.077Z,9.10
2022-09-12T07:31:14.405Z,9.73
2022-09-12T07:33:41.968Z,8.13
2022-09-12T07:36:16.226Z,8.27
2022-09-12T07:38:43.897Z,9.03
2022-09-12T07:41:31.035Z,8.07
2022-09-12T07:43:59.343Z,7.80
2022-09-12T07:46:26.674Z,8.18
2022-09-12T07:48:54.767Z,8.80
2022-09-12T07:51:22.170Z,6.70
2022-09-12T07:53:49.151Z,10.10
2022-09-12T07:56:16.546Z,8.85
2022-09-12T07:58:43.929Z,8.25
2022-09-12T08:01:15.770Z,6.53
2022-09-12T08:03:43.464Z,6.93
2022-09-12T08:06:12.166Z,6.43
2022-09-12T08:08:38.722Z,7.57
2022-09-12T08:11:07.857Z,6.82
2022-09-12T08:13:36.291Z,7.40
2022-09-12T08:16:06.146Z,7.23
2022-09-12T08:18:33.202Z,6.90
2022-09-12T08:21:06.549Z,8.38
2022-09-12T08:23:33.830Z,6.65
2022-09-12T08:26:06.108Z,5.82
2022-09-12T08:28:34.832Z,6.00
2022-09-12T08:31:08.777Z,6.60
2022-09-12T08:33:35.738Z,7.05
2022-09-12T08:36:07.139Z,6.85
2022-09-12T08:38:35.078Z,7.93
2022-09-12T08:41:04.255Z,5.97
2022-09-12T08:43:37.797Z,5.80
2022-09-12T08:46:13.058Z,6.60
2022-09-12T08:48:41.037Z,5.63
2022-09-12T08:51:12.968Z,5.88
2022-09-12T08:53:40.274Z,6.50
2022-09-12T08:56:11.653Z,6.82
2022-09-12T08:58:40.812Z,6.20
2022-09-12T09:01:15.386Z,5.47
2022-09-12T09:04:37.768Z,5.55
2022-09-12T09:07:31.593Z,6.00
2022-09-12T09:10:30.296Z,7.22
2022-09-12T09:13:47.543Z,6.22
2022-09-12T09:16:16.934Z,7.15
2022-09-12T09:18:46.070Z,6.18
2022-09-12T09:21:49.575Z,5.40
2022-09-12T09:24:21.988Z,6.05
2022-09-12T09:27:01.615Z,5.50
2022-09-12T09:29:35.148Z,6.18
2022-09-12T09:32:10.719Z,5.90
2022-09-12T09:34:39.008Z,5.97
2022-09-12T09:37:30.474Z,5.68
2022-09-12T09:40:11.396Z,5.43
2022-09-12T09:43:02.769Z,5.80
2022-09-12T09:45:29.649Z,6.70
2022-09-12T09:48:11.118Z,5.90
2022-09-12T09:50:38.040Z,6.28
2022-09-12T09:53:06.339Z,5.60
2022-09-12T09:55:39.892Z,8.23
2022-09-12T09:58:06.634Z,5.45
2022-09-12T10:00:39.731Z,5.27
2022-09-12T10:03:13.367Z,7.05
2022-09-12T10:05:53.866Z,6.03
2022-09-12T10:08:29.317Z,5.53
2022-09-12T10:11:05.579Z,4.90
2022-09-12T10:13:53.118Z,5.47
2022-09-12T10:16:25.390Z,5.78
2022-09-12T10:18:56.721Z,5.45
2022-09-12T10:21:32.198Z,6.35
2022-09-12T10:24:21.340Z,5.05
2022-09-12T10:26:57.210Z,6.53
2022-09-12T10:29:31.612Z,5.32
2022-09-12T10:32:01.173Z,5.18
2022-09-12T10:34:32.331Z,5.32
2022-09-12T10:37:02.856Z,5.80
2022-09-12T10:39:31.080Z,5.67
2022-09-12T10:41:57.468Z,5.43
2022-09-12T10:44:35.262Z,6.15
2022-09-12T10:47:20.830Z,5.30
2022-09-12T10:49:47.211Z,6.68
2022-09-12T10:52:31.951Z,5.20
2022-09-12T10:54:58.976Z,4.53
2022-09-12T10:57:46.268Z,5.90
2022-09-12T11:00:17.495Z,4.95
2022-09-12T11:03:16.026Z,5.28
2022-09-12T11:06:00.463Z,5.50
2022-09-12T11:08:41.776Z,5.43
2022-09-12T11:11:26.842Z,5.47
2022-09-12T11:14:31.057Z,5.15
2022-09-12T11:17:13.275Z,5.07
2022-09-12T11:19:43.015Z,5.70
2022-09-12T11:22:12.126Z,4.70
2022-09-12T11:25:01.108Z,5.47
2022-09-12T11:27:52.258Z,5.20
2022-09-12T11:30:19.069Z,5.40
2022-09-12T11:33:01.442Z,4.90
2022-09-12T11:35:30.270Z,5.03
2022-09-12T11:38:20.946Z,5.78
2022-09-12T11:40:56.471Z,5.53
2022-09-12T11:44:14.232Z,4.80
2022-09-12T11:46:43.132Z,5.80
2022-09-12T11:49:09.471Z,5.13
2022-09-12T11:51:49.662Z,5.53
2022-09-12T11:54:22.988Z,4.90
2022-09-12T11:56:55.811Z,5.13
2022-09-12T11:59:44.351Z,4.83
2022-09-12T12:02:22.360Z,5.20
2022-09-12T12:05:20.505Z,4.90
2022-09-12T12:07:56.049Z,4.80
2022-09-12T12:10:53.867Z,4.90
2022-09-12T12:13:30.002Z,4.90
2022-09-12T12:16:03.860Z,4.80
2022-09-12T12:18:32.332Z,4.70
2022-09-12T12:21:21.631Z,5.13
2022-09-12T12:24:09.767Z,4.50
2022-09-12T12:26:39.412Z,4.77
2022-09-12T12:29:13.100Z,4.57
2022-09-12T12:31:58.333Z,4.90
2022-09-12T12:34:32.174Z,4.20
2022-09-12T12:37:19.544Z,4.82
2022-09-12T12:39:47.813Z,3.93
2022-09-12T12:42:32.557Z,4.63
2022-09-12T12:45:27.757Z,5.63
2022-09-12T12:47:58.049Z,6.05
2022-09-12T12:50:29.338Z,5.50
2022-09-12T12:52:59.738Z,5.10
2022-09-12T12:55:48.022Z,5.22
2022-09-12T12:58:40.645Z,5.75
2022-09-12T13:01:11.964Z,4.47
2022-09-12T13:03:43.547Z,5.20
2022-09-12T13:06:29.456Z,4.27
2022-09-12T13:09:00.318Z,5.90
2022-09-12T13:11:38.961Z,5.22
2022-09-12T13:14:27.190Z,4.72
2022-09-12T13:16:59.964Z,4.93
2022-09-12T13:19:30.398Z,4.80
2022-09-12T13:22:00.216Z,4.72
2022-09-12T13:24:26.590Z,4.95
2022-09-12T13:26:53.522Z,5.85
2022-09-12T13:29:22.651Z,5.18
2022-09-12T13:31:53.900Z,4.23
2022-09-12T13:34:33.952Z,4.43
2022-09-12T13:37:25.891Z,4.47
2022-09-12T13:40:15.823Z,4.80
2022-09-12T13:42:48.485Z,4.32
2022-09-12T13:45:21.180Z,4.90
2022-09-12T13:47:56.599Z,4.07
2022-09-12T13:50:28.380Z,4.45
2022-09-12T13:53:05.902Z,4.75
2022-09-12T13:55:38.851Z,4.97
2022-09-12T13:58:07.045Z,4.40
2022-09-12T14:00:34.995Z,4.93
2022-09-12T14:03:20.685Z,4.82
2022-09-12T14:05:56.711Z,5.35
2022-09-12T14:08:23.877Z,4.90
2022-09-12T14:10:51.257Z,4.83
2022-09-12T14:13:25.120Z,4.57
2022-09-12T14:15:53.538Z,5.10
2022-09-12T14:18:28.605Z,5.07
2022-09-12T14:20:57.386Z,4.90
2022-09-12T14:23:30.583Z,5.10
2022-09-12T14:26:00.062Z,4.35
2022-09-12T14:28:30.153Z,4.50
2022-09-12T14:31:26.698Z,4.70
2022-09-12T14:33:58.719Z,4.82
2022-09-12T14:36:33.802Z,4.70
2022-09-12T14:39:06.864Z,5.18
2022-09-12T14:41:41.399Z,4.45
2022-09-12T14:44:26.488Z,5.03
2022-09-12T14:46:53.189Z,5.13
2022-09-12T14:49:36.190Z,4.73
2022-09-12T14:52:09.947Z,4.72
2022-09-12T14:54:38.707Z,4.40
2022-09-12T14:57:17.930Z,4.90
2022-09-12T14:59:44.302Z,4.70
2022-09-12T15:02:14.187Z,4.20
2022-09-12T15:05:05.753Z,5.13
2022-09-12T15:07:36.243Z,6.68
2022-09-12T15:10:06.114Z,6.82
2022-09-12T15:12:32.772Z,5.35
2022-09-12T15:15:17.019Z,5.40
2022-09-12T15:17:43.629Z,5.65
2022-09-12T15:20:10.506Z,4.85
2022-09-12T15:22:38.295Z,5.07
2022-09-12T15:25:06.028Z,4.93
2022-09-12T15:27:32.516Z,5.53
2022-09-12T15:29:59.194Z,4.47
2022-09-12T15:32:27.605Z,4.72
2022-09-12T15:34:54.248Z,4.95
2022-09-12T15:37:22.985Z,5.55
2022-09-12T15:39:50.375Z,5.43
2022-09-12T15:42:28.152Z,4.78
2022-09-12T15:44:57.484Z,4.55
2022-09-12T15:47:26.161Z,4.90
2022-09-12T15:49:52.518Z,5.57
2022-09-12T15:52:19.058Z,4.77
2022-09-12T15:54:45.430Z,6.03
2022-09-12T15:57:11.822Z,5.38
2022-09-12T15:59:38.212Z,5.45
2022-09-12T16:02:04.708Z,4.80
2022-09-12T16:04:31.568Z,4.87
2022-09-12T16:06:57.993Z,5.20
2022-09-12T16:09:24.492Z,5.30
2022-09-12T16:11:50.913Z,5.53
2022-09-12T16:14:18.729Z,5.00
2022-09-12T16:16:52.780Z,5.60
2022-09-12T16:19:19.290Z,5.78
2022-09-12T16:21:45.674Z,5.20
2022-09-12T16:24:12.119Z,5.53
2022-09-12T16:26:38.603Z,5.40
2022-09-12T16:29:05.177Z,6.60
2022-09-12T16:31:31.727Z,8.10
2022-09-12T16:33:58.094Z,6.20
2022-09-12T16:36:24.621Z,5.20
2022-09-12T16:38:53.036Z,6.20
2022-09-12T16:41:21.756Z,5.13
2022-09-12T16:43:48.566Z,5.57
2022-09-12T16:46:17.191Z,5.78
2022-09-12T16:48:49.591Z,5.85
2022-09-12T16:51:23.693Z,5.45
2022-09-12T16:53:50.495Z,5.80
2022-09-12T16:56:17.018Z,7.07
2022-09-12T16:58:43.653Z,6.38
2022-09-12T17:01:15.572Z,5.47
2022-09-12T17:03:42.831Z,5.82
2022-09-12T17:06:15.153Z,6.20
2022-09-12T17:08:43.352Z,5.40
2022-09-12T17:11:12.511Z,5.60
2022-09-12T17:14:03.193Z,6.53
2022-09-12T17:16:27.960Z,5.75
2022-09-12T17:18:55.042Z,5.33
2022-09-12T17:21:21.886Z,5.22
2022-09-12T17:23:48.742Z,5.45
2022-09-12T17:26:15.205Z,6.25
2022-09-12T17:28:42.226Z,6.00
2022-09-12T17:31:12.151Z,6.43
2022-09-12T17:33:39.189Z,7.32
2022-09-12T17:36:15.208Z,6.53
2022-09-12T17:38:43.177Z,7.50
2022-09-12T17:41:11.356Z,8.23
2022-09-12T17:43:40.788Z,8.43
2022-09-12T17:46:08.206Z,7.72
2022-09-12T17:48:35.295Z,8.15
2022-09-12T17:51:13.462Z,7.47
2022-09-12T17:53:41.442Z,8.13
2022-09-12T17:56:08.610Z,7.67
2022-09-12T17:58:35.777Z,7.60
2022-09-12T18:01:26.538Z,6.82
2022-09-12T18:03:55.337Z,8.13
2022-09-12T18:06:23.343Z,7.72
2022-09-12T18:08:50.070Z,8.97
2022-09-12T18:11:16.570Z,9.25
2022-09-12T18:13:42.978Z,8.77
2022-09-12T18:16:11.878Z,10.27
2022-09-12T18:18:39.027Z,9.27
2022-09-12T18:21:07.501Z,9.07
2022-09-12T18:23:34.157Z,8.15
2022-09-12T18:26:05.433Z,7.72
2022-09-12T18:28:36.918Z,8.70
2022-09-12T18:31:04.188Z,9.00
2022-09-12T18:33:30.644Z,9.37
2022-09-12T18:35:57.020Z,7.78
2022-09-12T18:38:23.432Z,8.05
2022-09-12T18:40:49.964Z,8.85
2022-09-12T18:43:16.391Z,10.50
2022-09-12T18:45:42.813Z,9.00
2022-09-12T18:48:09.407Z,8.43
2022-09-12T18:50:35.820Z,11.13
2022-09-12T18:53:02.189Z,10.32
2022-09-12T18:55:30.269Z,10.27
2022-09-12T18:57:56.714Z,9.53
2022-09-12T19:00:23.102Z,9.70
2022-09-12T19:02:49.501Z,9.75
2022-09-12T19:05:15.941Z,10.43
2022-09-12T19:07:42.404Z,9.25
2022-09-12T19:10:09.083Z,9.80
2022-09-12T19:12:35.621Z,9.77
2022-09-12T19:15:02.083Z,14.05
2022-09-12T19:17:28.761Z,11.60
2022-09-12T19:19:55.459Z,12.13
2022-09-12T19:22:22.226Z,11.80
2022-09-12T19:24:48.658Z,10.65
2022-09-12T19:27:16.055Z,13.07
2022-09-12T19:29:42.599Z,16.10
2022-09-12T19:32:09.441Z,18.40
2022-09-12T19:34:35.890Z,20.37
2022-09-12T19:37:02.444Z,18.38
2022-09-12T19:39:28.908Z,20.95
2022-09-12T19:41:55.324Z,22.55
2022-09-12T19:44:21.849Z,22.38
2022-09-12T19:46:48.474Z,23.43
2022-09-12T19:49:15.130Z,25.45
2022-09-12T19:51:41.760Z,25.33
2022-09-12T19:54:08.559Z,27.70
2022-09-12T19:56:34.991Z,28.65
2022-09-12T19:59:01.527Z,25.37
2022-09-12T20:01:28.645Z,26.05
2022-09-12T20:03:56.243Z,23.52
2022-09-12T20:06:22.938Z,20.55
2022-09-12T20:08:49.965Z,22.95
2022-09-12T20:11:19.487Z,22.27
2022-09-12T20:13:46.412Z,25.73
2022-09-12T20:16:22.674Z,25.60
2022-09-12T20:18:54.580Z,23.23
2022-09-12T20:21:25.265Z,24.65
2022-09-12T20:23:52.194Z,22.30
2022-09-12T20:26:20.141Z,25.80
2022-09-12T20:28:46.607Z,24.77
2022-09-12T20:31:15.125Z,22.95
2022-09-12T20:33:42.145Z,19.80
2022-09-12T20:36:14.085Z,20.70
2022-09-12T20:38:41.442Z,21.50
2022-09-12T20:41:12.665Z,20.27
2022-09-12T20:43:40.002Z,20.52
2022-09-12T20:46:09.610Z,20.13
2022-09-12T20:48:37.048Z,19.97
2022-09-12T20:51:03.814Z,16.30
2022-09-12T20:53:34.689Z,16.85
2022-09-12T20:56:01.760Z,15.32
2022-09-12T20:58:28.238Z,14.10
2022-09-12T21:00:54.664Z,11.43
2022-09-12T21:03:21.061Z,11.60
2022-09-12T21:05:47.644Z,12.65
2022-09-12T21:08:14.724Z,12.60
2022-09-12T21:10:42.285Z,11.65
2022-09-12T21:13:12.714Z,13.57
2022-09-12T21:15:40.369Z,12.88
2022-09-12T21:18:07.065Z,12.30
2022-09-12T21:20:34.028Z,12.85
2022-09-12T21:23:00.441Z,12.35
2022-09-12T21:25:28.593Z,11.70
2022-09-12T21:27:54.993Z,12.48
2022-09-12T21:30:21.649Z,11.73
2022-09-12T21:32:48.496Z,10.27
2022-09-12T21:35:15.235Z,12.18
2022-09-12T21:37:41.590Z,10.23
2022-09-12T21:40:08.394Z,10.55
2022-09-12T21:42:34.813Z,11.20
2022-09-12T21:45:01.201Z,10.90
2022-09-12T21:47:27.587Z,11.65
2022-09-12T21:49:55.208Z,12.33
2022-09-12T21:52:21.938Z,11.88
2022-09-12T21:54:48.427Z,11.88
2022-09-12T21:57:14.907Z,12.90
2022-09-12T21:59:41.409Z,11.20
2022-09-12T22:02:08.688Z,10.97
2022-09-12T22:04:35.178Z,10.27
2022-09-12T22:07:02.089Z,11.32
2022-09-12T22:09:28.613Z,11.32
2022-09-12T22:11:55.568Z,10.00
2022-09-12T22:14:22.022Z,11.20
2022-09-12T22:16:49.374Z,10.38
2022-09-12T22:19:15.838Z,10.18
2022-09-12T22:22:02.171Z,10.73
2022-09-12T22:24:29.335Z,12.63
2022-09-12T22:26:57.183Z,12.73
2022-09-12T22:29:23.522Z,12.38
2022-09-12T22:31:50.348Z,12.63
2022-09-12T22:34:16.941Z,14.35
2022-09-12T22:36:44.387Z,13.40
2022-09-12T22:39:10.900Z,12.90
2022-09-12T22:41:37.480Z,12.10
2022-09-12T22:44:03.884Z,12.02
2022-09-12T22:46:30.633Z,14.00
2022-09-12T22:48:57.068Z,12.80
2022-09-12T22:51:23.989Z,15.43
2022-09-12T22:53:50.355Z,14.48
2022-09-12T22:56:17.277Z,14.30
2022-09-12T22:58:43.943Z,14.95
2022-09-12T23:01:10.810Z,14.23
2022-09-12T23:03:37.596Z,13.90
2022-09-12T23:06:04.897Z,14.68
2022-09-12T23:08:31.961Z,15.50
2022-09-12T23:11:12.921Z,14.63
2022-09-12T23:13:42.342Z,14.40
2022-09-12T23:16:14.079Z,14.10
2022-09-12T23:18:40.667Z,12.73
2022-09-12T23:21:09.418Z,13.88
2022-09-12T23:23:36.689Z,14.13
2022-09-12T23:26:15.598Z,14.02
2022-09-12T23:28:57.022Z,16.20
2022-09-12T23:31:25.614Z,13.70
2022-09-12T23:33:56.587Z,14.90
2022-09-12T23:36:23.724Z,15.13
2022-09-12T23:38:50.522Z,13.40
2022-09-12T23:41:18.048Z,13.37
2022-09-12T23:43:45.466Z,12.63
2022-09-12T23:46:13.819Z,12.95
2022-09-12T23:48:40.890Z,13.35
2022-09-12T23:51:07.286Z,14.70
2022-09-12T23:53:35.863Z,13.90
2022-09-12T23:56:02.586Z,12.32
2022-09-12T23:58:30.921Z,14.43
